Time;durP1;ratioP1;P1;durP2;ratioP2;P2;SDS_P1;SDS_P2;PMS_P1;PMS_P2;Temp;Humidity;BMP_temperature;BMP_pressure;BME280_temperature;BME280_humidity;BME280_pressure;Samples;Min_cycle;Max_cycle;Signal;HPM_P1;HPM_P2
2021/12/19 00:04:01;;;;;;;28.03;17.00;;;-3.00;99.90;;;;;;5018388;28;20259;-75
2021/12/19 00:09:12;;;;;;;26.37;17.13;;;-2.70;99.90;;;;;;5018607;28;20181;-76
2021/12/19 00:11:39;;;;;;;26.23;17.43;;;-2.40;99.90;;;;;;5018102;28;20181;-75
2021/12/19 00:14:05;;;;;;;28.23;18.20;;;-1.70;99.90;;;;;;5018312;28;20232;-76
2021/12/19 00:16:31;;;;;;;26.00;15.70;;;-2.60;99.90;;;;;;5018327;28;20196;-74
2021/12/19 00:18:57;;;;;;;27.00;15.53;;;-3.90;99.90;;;;;;5033753;28;20177;-77
2021/12/19 00:21:25;;;;;;;23.90;14.87;;;-1.60;99.90;;;;;;5018119;28;20565;-79
2021/12/19 00:23:52;;;;;;;19.97;14.33;;;-3.20;99.90;;;;;;5018209;28;20269;-76
2021/12/19 00:26:19;;;;;;;21.97;14.07;;;-3.10;99.90;;;;;;5018034;28;20249;-76
2021/12/19 00:28:47;;;;;;;20.13;13.97;;;-2.80;99.90;;;;;;5018022;28;20211;-77
2021/12/19 00:31:13;;;;;;;22.43;13.20;;;-2.80;99.90;;;;;;5018195;28;20565;-82
2021/12/19 00:33:40;;;;;;;23.20;15.63;;;-2.90;99.90;;;;;;5017896;28;20168;-77
2021/12/19 00:36:07;;;;;;;23.77;15.73;;;-3.00;99.90;;;;;;5033417;28;20243;-78
2021/12/19 00:38:33;;;;;;;22.97;15.03;;;-3.40;99.90;;;;;;5017819;28;20514;-76
2021/12/19 00:40:59;;;;;;;23.80;14.47;;;-1.30;99.90;;;;;;5017726;28;20202;-78
2021/12/19 00:43:36;;;;;;;21.57;15.83;;;-3.70;99.90;;;;;;5016665;28;20592;-76
2021/12/19 00:46:07;;;;;;;24.63;16.50;;;-1.20;99.90;;;;;;5033349;28;20165;-76
2021/12/19 00:48:39;;;;;;;26.40;15.67;;;-3.50;99.90;;;;;;5032860;28;20177;-76
2021/12/19 00:51:08;;;;;;;21.13;14.13;;;-2.30;99.90;;;;;;5017590;28;20238;-76
2021/12/19 00:53:35;;;;;;;25.03;17.57;;;-3.80;99.90;;;;;;5017299;28;20177;-77
2021/12/19 00:56:02;;;;;;;24.40;16.63;;;-2.70;99.90;;;;;;5017354;28;20177;-76
2021/12/19 00:58:28;;;;;;;23.33;14.23;;;-1.60;99.90;;;;;;5017268;28;20604;-76
2021/12/19 01:00:53;;;;;;;26.57;15.27;;;-3.30;99.90;;;;;;5017513;28;20272;-78
2021/12/19 01:03:21;;;;;;;22.63;16.23;;;-3.40;99.90;;;;;;5017364;28;20193;-76
2021/12/19 01:05:47;;;;;;;26.10;16.67;;;-3.10;99.90;;;;;;5017249;28;20161;-80
2021/12/19 01:08:13;;;;;;;29.37;17.83;;;-2.50;99.90;;;;;;5032684;28;20174;-79
2021/12/19 01:10:42;;;;;;;24.87;16.33;;;-3.20;99.90;;;;;;5016827;28;20252;-78
2021/12/19 01:13:08;;;;;;;25.60;16.40;;;-3.30;99.90;;;;;;5017342;28;20166;-77
2021/12/19 01:15:34;;;;;;;25.20;15.27;;;-3.20;99.90;;;;;;5017118;28;20597;-78
2021/12/19 01:18:00;;;;;;;22.47;15.80;;;-2.80;99.90;;;;;;5017215;28;20206;-79
2021/12/19 01:20:28;;;;;;;22.43;14.90;;;-3.40;99.90;;;;;;5017062;28;20176;-78
2021/12/19 01:22:54;;;;;;;20.43;13.87;;;-2.40;99.90;;;;;;5016870;28;20254;-78
2021/12/19 01:25:21;;;;;;;22.87;15.97;;;-2.20;99.90;;;;;;5016613;28;20582;-80
2021/12/19 01:27:47;;;;;;;18.80;13.27;;;-2.70;99.90;;;;;;5015995;28;20197;-76
2021/12/19 01:30:14;;;;;;;20.40;13.63;;;-3.10;99.90;;;;;;5016881;28;20166;-80
2021/12/19 01:32:41;;;;;;;17.07;11.27;;;-2.80;99.90;;;;;;5015792;28;20204;-77
2021/12/19 01:35:09;;;;;;;18.33;11.57;;;-3.40;99.90;;;;;;5016276;28;20188;-79
2021/12/19 01:37:35;;;;;;;21.80;15.60;;;-3.40;99.90;;;;;;5032161;28;20180;-78
2021/12/19 01:40:02;;;;;;;20.70;14.57;;;-2.40;99.90;;;;;;5016497;28;20169;-77
2021/12/19 01:42:34;;;;;;;19.77;13.43;;;-2.30;99.90;;;;;;5015569;28;20510;-76
2021/12/19 01:45:00;;;;;;;24.53;12.87;;;-2.50;99.90;;;;;;5016533;28;20158;-76
2021/12/19 01:47:26;;;;;;;17.63;12.33;;;-1.80;99.90;;;;;;5016745;28;20257;-76
2021/12/19 01:49:55;;;;;;;15.80;11.83;;;-3.20;99.90;;;;;;5016475;28;20178;-78
2021/12/19 01:52:22;;;;;;;21.17;15.33;;;-2.40;99.90;;;;;;5016044;28;20207;-77
2021/12/19 01:54:48;;;;;;;16.83;11.07;;;-3.20;99.90;;;;;;5015372;28;20187;-79
2021/12/19 01:57:14;;;;;;;17.93;13.07;;;-3.10;99.90;;;;;;5016660;28;20170;-77
2021/12/19 01:59:40;;;;;;;17.83;12.60;;;-2.10;99.90;;;;;;5016275;28;20180;-76
2021/12/19 02:02:06;;;;;;;22.67;14.63;;;-2.10;99.90;;;;;;5016362;28;20193;-76
2021/12/19 02:04:33;;;;;;;16.80;12.63;;;-2.40;99.90;;;;;;5016344;28;20169;-77
2021/12/19 02:07:00;;;;;;;24.53;16.60;;;-2.40;99.90;;;;;;5016114;28;20250;-76
2021/12/19 02:09:26;;;;;;;20.40;14.50;;;-2.50;99.90;;;;;;5015374;28;20223;-76
2021/12/19 02:11:52;;;;;;;21.77;13.90;;;-1.90;99.90;;;;;;5016124;28;20585;-76
2021/12/19 02:14:18;;;;;;;17.00;11.90;;;-2.30;99.90;;;;;;5016248;28;20170;-77
2021/12/19 02:16:46;;;;;;;23.00;15.37;;;-2.20;99.90;;;;;;5016193;28;20166;-78
2021/12/19 02:19:13;;;;;;;23.17;13.73;;;-2.20;99.90;;;;;;5016267;28;20227;-77
2021/12/19 02:21:40;;;;;;;22.57;15.17;;;-2.80;99.90;;;;;;5015718;28;20216;-76
2021/12/19 02:24:08;;;;;;;21.40;14.60;;;-3.00;99.90;;;;;;5016144;28;20195;-76
2021/12/19 02:26:34;;;;;;;24.57;14.80;;;-3.40;99.90;;;;;;5015926;28;20201;-77
2021/12/19 02:29:01;;;;;;;19.03;12.37;;;-2.80;99.90;;;;;;5016131;28;20604;-76
2021/12/19 02:31:28;;;;;;;27.43;14.30;;;-3.00;99.90;;;;;;5015981;28;20536;-77
2021/12/19 02:34:17;;;;;;;27.27;15.73;;;-0.60;99.90;;;;;;5015817;28;20161;-77
2021/12/19 02:50:08;;;;;;;18.90;13.30;;;-2.40;99.90;;;;;;5046652;28;20177;-78
2021/12/19 02:52:34;;;;;;;19.07;12.63;;;-2.60;99.90;;;;;;5019535;28;20264;-79
2021/12/19 02:55:01;;;;;;;15.17;10.93;;;-2.30;99.90;;;;;;5019910;28;20248;-83
2021/12/19 02:57:26;;;;;;;17.03;12.37;;;-0.50;99.90;;;;;;5021787;28;20180;-85
2021/12/19 02:59:53;;;;;;;16.20;11.73;;;-2.70;99.90;;;;;;5021178;28;20161;-82
2021/12/19 03:02:19;;;;;;;17.03;11.23;;;-3.00;99.90;;;;;;5021700;28;20197;-81
2021/12/19 03:05:03;;;;;;;13.67;10.07;;;-2.30;99.90;;;;;;5022212;28;20518;-83
2021/12/19 03:07:30;;;;;;;18.17;12.97;;;-3.20;99.90;;;;;;5020814;28;20165;-85
2021/12/19 03:17:58;;;;;;;14.13;9.33;;;-2.80;99.90;;;;;;5019481;28;20536;-80
2021/12/19 03:20:25;;;;;;;14.10;10.97;;;-2.50;99.90;;;;;;5018219;28;20173;-76
2021/12/19 03:22:50;;;;;;;14.37;9.60;;;-2.80;99.90;;;;;;5019007;28;20511;-77
2021/12/19 03:25:16;;;;;;;14.97;9.87;;;-2.70;99.90;;;;;;5034829;28;20198;-77
2021/12/19 03:27:42;;;;;;;16.40;9.60;;;-3.30;99.90;;;;;;5019222;28;20212;-79
2021/12/19 03:30:09;;;;;;;14.83;9.43;;;-2.90;99.90;;;;;;5019619;28;20514;-77
2021/12/19 03:32:35;;;;;;;13.77;10.63;;;-2.70;99.90;;;;;;5018168;28;20184;-76
2021/12/19 03:35:01;;;;;;;16.07;9.67;;;-2.80;99.90;;;;;;5017863;28;20239;-78
2021/12/19 03:37:27;;;;;;;19.93;11.10;;;-2.90;99.90;;;;;;5019250;28;20188;-81
2021/12/19 03:40:07;;;;;;;19.47;10.53;;;-1.20;99.90;;;;;;5019200;28;20165;-79
2021/12/19 03:42:34;;;;;;;20.50;11.23;;;-2.60;99.90;;;;;;5018914;28;20200;-79
2021/12/19 03:44:59;;;;;;;17.20;10.03;;;-2.90;99.90;;;;;;5017934;28;20919;-79
2021/12/19 03:47:26;;;;;;;18.33;11.10;;;-3.00;99.90;;;;;;5017692;28;20228;-75
2021/12/19 03:49:51;;;;;;;18.30;10.83;;;-3.10;99.90;;;;;;5018869;28;20471;-79
2021/12/19 03:52:17;;;;;;;16.30;10.97;;;-2.30;99.90;;;;;;5034045;28;20198;-79
2021/12/19 03:54:43;;;;;;;16.10;9.80;;;-3.20;99.90;;;;;;5018792;28;20181;-78
2021/12/19 03:57:10;;;;;;;20.20;11.17;;;-2.10;99.90;;;;;;5018380;28;20573;-82
2021/12/19 03:59:36;;;;;;;17.17;9.70;;;-3.30;99.90;;;;;;5018773;28;20597;-81
2021/12/19 04:02:02;;;;;;;9.37;6.93;;;-1.70;99.90;;;;;;5018613;28;20194;-82
2021/12/19 04:04:31;;;;;;;14.77;8.30;;;-3.60;99.90;;;;;;5018208;28;20166;-79
2021/12/19 04:06:56;;;;;;;14.40;7.30;;;-2.80;99.90;;;;;;5017630;28;20173;-79
2021/12/19 04:09:22;;;;;;;14.30;9.00;;;-2.80;99.90;;;;;;5018625;28;20244;-80
2021/12/19 04:11:51;;;;;;;10.70;6.83;;;-2.60;99.90;;;;;;5018593;28;20227;-75
2021/12/19 04:14:17;;;;;;;10.93;7.57;;;-3.20;99.90;;;;;;5018443;28;20573;-75
2021/12/19 04:16:43;;;;;;;15.07;8.23;;;-0.40;99.90;;;;;;5018569;28;20176;-75
2021/12/19 04:19:10;;;;;;;14.50;7.73;;;-2.30;99.90;;;;;;5018196;28;20611;-76
2021/12/19 04:21:36;;;;;;;12.97;8.43;;;-2.60;99.90;;;;;;5018493;28;20219;-75
2021/12/19 04:24:02;;;;;;;14.10;8.73;;;-2.80;99.90;;;;;;5018084;28;20529;-76
2021/12/19 04:26:28;;;;;;;11.90;7.53;;;-2.60;99.90;;;;;;5034090;28;20211;-77
2021/12/19 04:28:54;;;;;;;11.43;7.73;;;-2.40;99.90;;;;;;5018206;28;20200;-76
2021/12/19 04:31:20;;;;;;;10.93;7.83;;;-3.00;99.90;;;;;;5033805;28;20170;-76
2021/12/19 04:33:45;;;;;;;12.67;8.70;;;-3.10;99.90;;;;;;5017689;28;20166;-78
2021/12/19 04:36:17;;;;;;;18.50;9.10;;;-2.30;99.90;;;;;;5017151;28;20194;-76
2021/12/19 04:54:55;;;;;;;9.87;7.17;;;-3.70;99.90;;;;;;5017533;28;20186;-84
2021/12/19 05:16:02;;;;;;;15.47;8.97;;;-3.20;99.90;;;;;;5016921;28;20472;-81
2021/12/19 05:18:31;;;;;;;14.87;8.80;;;-2.70;99.90;;;;;;5016331;28;20177;-77
2021/12/19 05:21:10;;;;;;;12.83;7.83;;;-2.20;99.90;;;;;;5016058;28;20173;-78
2021/12/19 05:23:52;;;;;;;12.47;7.13;;;-2.60;99.90;;;;;;5016820;28;20604;-80
2021/12/19 05:26:18;;;;;;;12.93;6.83;;;-2.80;99.90;;;;;;5017187;28;20609;-81
2021/12/19 05:28:44;;;;;;;10.73;7.53;;;-1.60;99.90;;;;;;5017300;28;20166;-82
2021/12/19 05:31:09;;;;;;;12.30;8.40;;;-3.00;99.90;;;;;;5017099;28;20165;-79
2021/12/19 05:33:35;;;;;;;14.17;8.30;;;-3.00;99.90;;;;;;5017040;28;20283;-78
2021/12/19 05:44:08;;;;;;;11.37;6.80;;;-2.60;99.90;;;;;;5016818;28;20201;-81
2021/12/19 05:47:03;;;;;;;14.70;7.90;;;-2.90;99.90;;;;;;5016798;28;20580;-81
2021/12/19 05:49:29;;;;;;;14.77;7.80;;;-3.40;99.90;;;;;;5016693;28;20176;-80
2021/12/19 05:51:55;;;;;;;15.57;9.13;;;-3.60;99.90;;;;;;5016413;28;20196;-78
2021/12/19 05:54:21;;;;;;;16.93;9.57;;;-3.50;99.90;;;;;;5016691;28;20181;-78
2021/12/19 05:56:48;;;;;;;15.87;9.37;;;-3.00;99.90;;;;;;5016445;28;20577;-81
2021/12/19 05:59:14;;;;;;;16.17;9.10;;;-2.90;99.90;;;;;;5016305;28;20188;-78
2021/12/19 06:01:42;;;;;;;19.47;10.20;;;-2.80;99.90;;;;;;5016396;28;20593;-82
2021/12/19 06:04:09;;;;;;;22.43;9.67;;;-2.20;99.90;;;;;;5016533;28;20596;-76
2021/12/19 06:06:36;;;;;;;20.30;11.10;;;-2.20;99.90;;;;;;5016440;28;20220;-76
2021/12/19 06:09:03;;;;;;;17.30;10.33;;;-3.20;99.90;;;;;;5015398;28;20199;-75
2021/12/19 06:11:29;;;;;;;21.77;10.57;;;-3.50;99.90;;;;;;5015292;28;20604;-76
2021/12/19 06:13:54;;;;;;;23.63;11.63;;;-1.90;99.90;;;;;;5016089;28;20177;-74
2021/12/19 06:16:20;;;;;;;18.77;10.20;;;-1.50;99.90;;;;;;5016215;28;20169;-75
2021/12/19 06:18:47;;;;;;;16.83;11.33;;;-2.60;99.90;;;;;;5016293;28;20251;-76
2021/12/19 06:21:13;;;;;;;23.77;12.67;;;-3.10;99.90;;;;;;5015968;28;20601;-76
2021/12/19 06:23:39;;;;;;;23.53;12.23;;;-2.40;99.90;;;;;;5031566;28;20209;-76
2021/12/19 06:26:05;;;;;;;22.53;11.63;;;-1.30;99.90;;;;;;5031276;28;20173;-76
2021/12/19 06:28:31;;;;;;;23.67;11.63;;;-2.00;99.90;;;;;;5015046;28;20525;-76
2021/12/19 06:30:56;;;;;;;20.87;13.20;;;-2.10;99.90;;;;;;5031327;28;20187;-76
2021/12/19 06:33:22;;;;;;;22.43;11.80;;;-3.20;99.90;;;;;;5016070;28;20197;-74
2021/12/19 06:35:48;;;;;;;20.27;11.70;;;-3.20;99.90;;;;;;5015800;28;20506;-75
2021/12/19 06:38:15;;;;;;;22.93;13.17;;;-3.30;99.90;;;;;;5016017;28;20177;-74
2021/12/19 06:40:42;;;;;;;21.63;11.50;;;-3.70;99.90;;;;;;5015954;28;20173;-75
2021/12/19 06:43:07;;;;;;;24.40;13.77;;;-4.10;99.90;;;;;;5015597;28;20205;-77
2021/12/19 06:45:34;;;;;;;20.33;12.63;;;-1.90;99.90;;;;;;5015944;28;20184;-80
2021/12/19 06:47:59;;;;;;;27.87;13.57;;;-3.80;99.90;;;;;;5014739;28;20180;-77
2021/12/19 06:50:25;;;;;;;31.23;14.63;;;-3.30;99.90;;;;;;5015915;28;20656;-76
2021/12/19 06:52:51;;;;;;;28.17;14.63;;;-2.30;99.90;;;;;;5015854;28;20465;-75
2021/12/19 06:55:18;;;;;;;25.67;14.60;;;-3.00;99.90;;;;;;5014794;28;20467;-78
2021/12/19 06:57:45;;;;;;;34.80;13.83;;;-3.00;99.90;;;;;;5015565;28;20177;-83
2021/12/19 07:00:15;;;;;;;22.90;11.83;;;-2.40;99.90;;;;;;5031639;28;20636;-84
2021/12/19 07:02:41;;;;;;;35.60;15.97;;;-2.90;99.90;;;;;;5015901;28;20201;-77
2021/12/19 07:05:08;;;;;;;27.33;13.20;;;-3.10;99.90;;;;;;5016455;28;20244;-83
2021/12/19 07:07:34;;;;;;;39.90;17.43;;;-3.70;99.90;;;;;;5017931;28;20189;-82
2021/12/19 07:10:00;;;;;;;27.37;13.80;;;-3.40;99.90;;;;;;5016158;28;20209;-81
2021/12/19 07:12:26;;;;;;;33.60;14.93;;;-3.50;99.90;;;;;;5030960;28;20176;-81
2021/12/19 07:14:59;;;;;;;30.37;15.10;;;-2.90;99.90;;;;;;5014802;28;20178;-78
2021/12/19 07:17:25;;;;;;;35.13;16.80;;;-3.30;99.90;;;;;;5015585;28;20169;-78
2021/12/19 07:19:51;;;;;;;32.57;15.63;;;-2.90;99.90;;;;;;5031243;28;20177;-82
2021/12/19 07:22:18;;;;;;;26.53;13.40;;;-3.40;99.90;;;;;;5014173;28;20339;-80
2021/12/19 07:24:45;;;;;;;34.23;15.40;;;-3.60;99.90;;;;;;5015578;28;20181;-85
2021/12/19 07:27:13;;;;;;;27.93;14.73;;;-2.90;99.90;;;;;;5015225;28;20192;-80
2021/12/19 07:29:39;;;;;;;22.60;13.50;;;-3.60;99.90;;;;;;5015641;28;20508;-80
2021/12/19 07:32:05;;;;;;;32.13;14.33;;;-3.70;99.90;;;;;;5016891;28;20173;-84
2021/12/19 07:34:33;;;;;;;27.80;13.80;;;-3.70;99.90;;;;;;5019169;28;20511;-75
2021/12/19 07:37:00;;;;;;;23.53;12.40;;;-3.40;99.90;;;;;;5019028;28;20191;-75
2021/12/19 07:39:40;;;;;;;22.07;13.40;;;-3.30;99.90;;;;;;5018118;28;20260;-75
2021/12/19 07:42:10;;;;;;;27.20;15.80;;;-2.90;99.90;;;;;;5018654;28;20197;-76
2021/12/19 07:44:38;;;;;;;22.77;12.87;;;-1.30;99.90;;;;;;5034469;28;20173;-76
2021/12/19 07:47:07;;;;;;;23.90;13.53;;;-3.00;99.90;;;;;;5019102;28;20224;-76
2021/12/19 07:49:33;;;;;;;34.10;14.97;;;-2.90;99.90;;;;;;5018774;28;20169;-76
2021/12/19 07:51:59;;;;;;;28.30;13.90;;;-3.00;99.90;;;;;;5018842;28;20604;-77
2021/12/19 07:54:24;;;;;;;29.93;14.97;;;-1.90;99.90;;;;;;5018579;28;20181;-76
2021/12/19 07:56:51;;;;;;;26.73;16.00;;;-1.80;99.90;;;;;;5018555;28;20197;-76
2021/12/19 07:59:18;;;;;;;24.77;14.90;;;-3.10;99.90;;;;;;5018794;28;20174;-77
2021/12/19 08:01:43;;;;;;;30.03;14.53;;;-2.90;99.90;;;;;;5018704;28;20532;-82
2021/12/19 08:04:09;;;;;;;33.47;14.20;;;-2.70;99.90;;;;;;5018457;28;20169;-77
2021/12/19 08:06:36;;;;;;;31.87;15.80;;;-3.00;99.90;;;;;;5018650;28;20259;-77
2021/12/19 08:09:09;;;;;;;27.87;13.93;;;-2.40;99.90;;;;;;5018626;28;20605;-78
2021/12/19 08:11:42;;;;;;;28.20;14.73;;;-2.70;99.90;;;;;;5018213;28;20578;-79
2021/12/19 08:14:13;;;;;;;26.40;14.47;;;-2.80;99.90;;;;;;5018254;28;20566;-76
2021/12/19 08:16:41;;;;;;;26.87;13.43;;;-2.80;99.90;;;;;;5032261;28;20165;-76
2021/12/19 08:19:11;;;;;;;28.63;15.03;;;-3.10;99.90;;;;;;5027329;28;20177;-79
2021/12/19 08:21:37;;;;;;;33.00;13.80;;;-1.50;99.90;;;;;;5027412;28;20209;-73
2021/12/19 08:24:09;;;;;;;30.80;13.77;;;-2.90;99.90;;;;;;5021840;28;20262;-77
2021/12/19 08:26:36;;;;;;;30.73;14.30;;;-2.70;99.90;;;;;;5018118;28;20547;-77
2021/12/19 08:29:02;;;;;;;37.73;15.73;;;-2.80;99.90;;;;;;5018082;28;20201;-78
2021/12/19 08:31:28;;;;;;;37.67;14.63;;;-2.70;99.90;;;;;;5018079;28;20166;-75
2021/12/19 08:33:54;;;;;;;32.67;15.57;;;-2.40;99.90;;;;;;5017742;28;20169;-79
2021/12/19 08:36:20;;;;;;;27.43;14.30;;;-2.50;99.90;;;;;;5017837;28;20194;-80
2021/12/19 08:38:47;;;;;;;29.20;12.47;;;-2.90;99.90;;;;;;5016567;28;20544;-79
2021/12/19 08:41:13;;;;;;;25.60;12.20;;;-2.10;99.90;;;;;;5016855;28;20201;-78
2021/12/19 08:43:39;;;;;;;31.10;14.27;;;-2.00;99.90;;;;;;5016597;28;20621;-77
2021/12/19 08:46:08;;;;;;;30.07;13.60;;;-3.00;99.90;;;;;;5022805;28;20242;-80
2021/12/19 08:48:35;;;;;;;31.93;13.30;;;-3.00;99.90;;;;;;5025553;28;20177;-77
2021/12/19 08:51:01;;;;;;;26.53;13.77;;;-1.60;99.90;;;;;;5017782;28;20199;-82
2021/12/19 08:53:27;;;;;;;26.70;14.10;;;-2.30;99.90;;;;;;5017156;28;20260;-75
2021/12/19 08:55:52;;;;;;;23.40;9.70;;;-3.30;99.90;;;;;;5016461;28;20219;-80
2021/12/19 08:58:18;;;;;;;20.50;11.40;;;-3.00;99.90;;;;;;5016935;28;20608;-78
2021/12/19 09:00:44;;;;;;;20.90;11.47;;;-2.60;99.90;;;;;;5017634;28;20588;-76
2021/12/19 09:03:13;;;;;;;19.77;10.00;;;-2.50;99.90;;;;;;5016440;28;20288;-80
2021/12/19 09:05:39;;;;;;;21.20;11.13;;;-2.60;99.90;;;;;;5027081;28;20254;-82
2021/12/19 09:08:05;;;;;;;23.07;12.93;;;-0.70;99.90;;;;;;5032521;28;20239;-83
2021/12/19 09:10:32;;;;;;;20.40;11.70;;;-2.80;99.90;;;;;;5027883;28;20204;-83
2021/12/19 09:12:58;;;;;;;24.43;12.07;;;-2.60;99.90;;;;;;5034724;28;20195;-86
2021/12/19 09:15:24;;;;;;;20.27;10.80;;;-2.70;99.90;;;;;;5034446;28;20271;-85
2021/12/19 09:17:50;;;;;;;21.43;11.47;;;-2.90;99.90;;;;;;5034288;28;20259;-86
2021/12/19 09:20:16;;;;;;;22.53;9.90;;;-3.70;99.90;;;;;;5031306;28;20187;-86
2021/12/19 09:22:43;;;;;;;31.20;11.33;;;-3.10;99.90;;;;;;5035007;28;20291;-85
2021/12/19 09:25:09;;;;;;;23.50;11.90;;;-3.60;99.90;;;;;;5034149;28;20173;-80
2021/12/19 09:27:35;;;;;;;24.23;11.73;;;-3.10;99.90;;;;;;5031316;28;20176;-78
2021/12/19 09:30:01;;;;;;;15.20;9.30;;;-2.40;99.90;;;;;;5030572;28;20188;-81
2021/12/19 09:32:27;;;;;;;20.67;11.10;;;-2.50;99.90;;;;;;5025928;28;20280;-78
2021/12/19 09:34:55;;;;;;;24.63;10.90;;;-2.60;99.90;;;;;;5024999;28;20704;-80
2021/12/19 09:37:21;;;;;;;17.83;9.43;;;-2.60;99.90;;;;;;5026737;28;20181;-78
2021/12/19 09:39:49;;;;;;;16.70;8.97;;;-2.30;99.90;;;;;;5030590;28;20573;-85
2021/12/19 09:42:19;;;;;;;17.67;10.03;;;-2.60;99.90;;;;;;5033711;28;20596;-82
2021/12/19 09:44:45;;;;;;;17.03;9.73;;;-2.50;99.90;;;;;;5026262;28;20227;-85
2021/12/19 09:47:11;;;;;;;15.67;9.30;;;-0.90;99.90;;;;;;5016996;28;20597;-82
2021/12/19 09:49:36;;;;;;;16.27;9.27;;;-2.50;99.90;;;;;;5028622;28;20208;-84
2021/12/19 09:52:07;;;;;;;15.83;7.30;;;-2.10;99.90;;;;;;5027274;28;20227;-84
2021/12/19 09:54:36;;;;;;;15.20;8.73;;;-2.30;99.90;;;;;;5018099;28;20184;-78
2021/12/19 09:57:03;;;;;;;16.23;7.90;;;-2.30;99.90;;;;;;5037136;28;20193;-76
2021/12/19 09:59:29;;;;;;;16.20;8.70;;;-2.20;99.90;;;;;;5033398;28;20181;-76
2021/12/19 10:01:55;;;;;;;12.17;8.27;;;-2.40;99.90;;;;;;5033941;28;20239;-75
2021/12/19 10:04:39;;;;;;;15.40;8.47;;;-2.20;99.90;;;;;;5034526;28;20177;-76
2021/12/19 10:07:12;;;;;;;12.17;8.50;;;-3.30;99.90;;;;;;5034636;28;20183;-75
2021/12/19 10:09:54;;;;;;;16.90;9.80;;;-3.70;99.90;;;;;;5036065;28;20189;-75
2021/12/19 10:15:18;;;;;;;19.63;10.80;;;-2.90;99.90;;;;;;5035876;28;20230;-84
2021/12/19 10:17:46;;;;;;;17.27;9.57;;;-3.90;99.90;;;;;;5039840;28;20173;-81
2021/12/19 10:20:16;;;;;;;13.43;7.60;;;-4.10;99.90;;;;;;5034300;28;20192;-79
2021/12/19 10:22:47;;;;;;;12.73;7.27;;;-3.10;99.90;;;;;;5034776;28;20208;-83
2021/12/19 10:25:30;;;;;;;16.13;9.63;;;-4.00;99.90;;;;;;5034963;28;20173;-82
2021/12/19 10:28:00;;;;;;;13.60;7.43;;;-4.20;99.90;;;;;;5034667;28;20172;-82
2021/12/19 10:30:35;;;;;;;17.50;8.73;;;-2.50;99.90;;;;;;5035926;28;20248;-84
2021/12/19 10:33:10;;;;;;;16.07;8.43;;;-3.70;99.90;;;;;;5035716;28;20377;-80
2021/12/19 10:35:47;;;;;;;13.37;8.63;;;-3.70;99.90;;;;;;5035429;28;20283;-81
2021/12/19 10:38:27;;;;;;;16.43;9.87;;;-3.90;99.90;;;;;;5031652;28;20179;-86
2021/12/19 10:41:04;;;;;;;17.03;8.57;;;-3.50;99.90;;;;;;5027816;28;20183;-80
2021/12/19 10:43:32;;;;;;;15.50;9.10;;;-3.30;99.90;;;;;;5035287;28;20249;-84
2021/12/19 10:46:02;;;;;;;15.33;8.37;;;-3.30;99.90;;;;;;5035518;28;20169;-82
2021/12/19 10:48:34;;;;;;;15.80;10.03;;;-3.00;99.90;;;;;;5034376;28;20238;-78
2021/12/19 10:51:20;;;;;;;15.07;9.03;;;-3.30;99.90;;;;;;5035023;28;20223;-81
2021/12/19 10:53:49;;;;;;;11.40;7.50;;;-2.00;99.90;;;;;;5031301;28;20608;-82
2021/12/19 10:56:21;;;;;;;11.10;6.80;;;-2.70;99.90;;;;;;5026002;28;20204;-81
2021/12/19 10:58:53;;;;;;;13.50;7.23;;;-0.90;99.90;;;;;;5029523;28;20239;-83
2021/12/19 11:01:26;;;;;;;11.80;7.43;;;-2.60;99.90;;;;;;5023562;28;20188;-79
2021/12/19 11:04:00;;;;;;;11.10;7.10;;;-3.70;99.90;;;;;;5016457;28;20201;-78
2021/12/19 11:06:37;;;;;;;10.47;7.50;;;-2.50;99.90;;;;;;5014960;28;20183;-77
2021/12/19 11:09:15;;;;;;;9.13;7.20;;;-3.80;99.90;;;;;;5032447;28;20275;-80
2021/12/19 11:11:42;;;;;;;13.10;7.10;;;-2.90;99.90;;;;;;5033897;28;20192;-81
2021/12/19 11:14:24;;;;;;;7.83;5.97;;;-3.70;99.90;;;;;;5036291;28;20177;-79
2021/12/19 11:16:56;;;;;;;10.57;6.27;;;-3.50;99.90;;;;;;5032477;28;20185;-79
2021/12/19 11:19:24;;;;;;;7.43;6.63;;;-3.90;99.90;;;;;;5032804;28;20545;-81
2021/12/19 11:21:50;;;;;;;10.50;6.27;;;-2.90;99.90;;;;;;5038806;28;20245;-77
2021/12/19 11:24:18;;;;;;;9.33;6.57;;;-3.00;99.90;;;;;;5039535;28;20184;-77
2021/12/19 11:26:46;;;;;;;9.73;6.27;;;-2.80;99.90;;;;;;5045154;28;20462;-81
2021/12/19 11:29:13;;;;;;;8.80;5.90;;;-3.10;99.90;;;;;;5060876;28;20257;-82
2021/12/19 11:31:41;;;;;;;9.43;6.30;;;-3.10;99.90;;;;;;5040568;28;20184;-78
2021/12/19 11:34:24;;;;;;;10.73;6.43;;;-3.60;99.90;;;;;;5038988;28;20176;-77
2021/12/19 11:36:59;;;;;;;8.13;7.00;;;-3.10;99.90;;;;;;5040315;28;20173;-79
2021/12/19 11:39:39;;;;;;;11.37;7.30;;;-2.70;99.90;;;;;;5039026;28;20176;-81
2021/12/19 11:42:14;;;;;;;8.17;5.20;;;-3.00;99.90;;;;;;5038341;28;20196;-77
2021/12/19 11:45:22;;;;;;;7.00;4.80;;;-3.80;99.90;;;;;;5039984;28;20176;-82
2021/12/19 11:47:54;;;;;;;5.73;4.20;;;-3.40;99.90;;;;;;5037230;28;20576;-80
2021/12/19 11:50:25;;;;;;;13.13;8.00;;;-4.10;99.90;;;;;;5037158;28;20168;-75
2021/12/19 11:52:54;;;;;;;5.97;4.47;;;-3.50;99.90;;;;;;5038489;28;20542;-79
2021/12/19 11:55:25;;;;;;;5.73;4.23;;;-1.90;99.90;;;;;;5038513;28;20187;-83
2021/12/19 11:58:09;;;;;;;10.87;7.50;;;-3.50;99.90;;;;;;5038524;28;20165;-80
2021/12/19 12:00:56;;;;;;;5.10;4.60;;;-3.40;99.90;;;;;;5038574;28;20184;-79
2021/12/19 12:03:33;;;;;;;23.33;20.97;;;-3.00;99.90;;;;;;5035690;28;20208;-78
2021/12/19 12:05:59;;;;;;;14.17;11.67;;;-3.20;99.90;;;;;;5018351;28;20177;-83
2021/12/19 12:08:29;;;;;;;4.20;3.83;;;-3.20;99.90;;;;;;5018709;28;20170;-77
2021/12/19 12:10:57;;;;;;;49.53;36.47;;;-3.20;99.90;;;;;;5018607;28;20177;-77
2021/12/19 12:13:30;;;;;;;34.20;26.23;;;-2.50;99.90;;;;;;5018598;28;20157;-77
2021/12/19 12:16:07;;;;;;;53.10;34.90;;;-2.60;99.90;;;;;;5018248;28;20481;-80
2021/12/19 12:18:35;;;;;;;77.20;56.83;;;-3.20;99.90;;;;;;5047374;28;20610;-78
2021/12/19 12:21:26;;;;;;;6.23;5.43;;;-2.90;99.90;;;;;;5036745;28;20276;-79
2021/12/19 12:23:56;;;;;;;6.33;4.97;;;-2.90;99.90;;;;;;5037701;28;20220;-74
2021/12/19 12:26:31;;;;;;;102.33;81.27;;;-3.20;99.90;;;;;;5037927;28;20582;-75
2021/12/19 12:28:58;;;;;;;27.70;21.17;;;-3.10;99.90;;;;;;5037980;28;20170;-73
2021/12/19 12:31:27;;;;;;;61.67;52.20;;;-3.20;99.90;;;;;;5037399;28;20221;-80
2021/12/19 12:33:54;;;;;;;26.33;18.77;;;-2.00;99.90;;;;;;5036463;28;20640;-81
2021/12/19 12:36:21;;;;;;;86.50;76.83;;;-2.60;99.90;;;;;;5037754;28;20198;-77
2021/12/19 12:38:50;;;;;;;11.53;10.43;;;-2.70;99.90;;;;;;5037714;28;20174;-74
2021/12/19 12:41:40;;;;;;;42.97;38.73;;;-3.00;99.90;;;;;;5037873;28;20230;-73
2021/12/19 12:44:06;;;;;;;176.67;131.90;;;-2.60;99.90;;;;;;5053019;28;20178;-74
2021/12/19 12:46:32;;;;;;;251.10;183.90;;;-2.80;99.90;;;;;;5035411;28;20181;-74
2021/12/19 12:49:06;;;;;;;112.23;93.30;;;-2.90;99.90;;;;;;5037294;28;20289;-73
2021/12/19 12:51:39;;;;;;;11.50;10.30;;;-2.90;99.90;;;;;;5037247;28;20613;-74
2021/12/19 12:54:10;;;;;;;27.20;24.37;;;-3.20;99.90;;;;;;5037114;28;20600;-74
2021/12/19 12:56:46;;;;;;;5.80;5.23;;;-2.40;99.90;;;;;;5036903;28;20261;-74
2021/12/19 12:59:16;;;;;;;76.70;54.53;;;-2.40;99.90;;;;;;5035735;28;20184;-73
2021/12/19 13:01:54;;;;;;;20.43;15.50;;;-2.30;99.90;;;;;;5036243;28;20181;-72
2021/12/19 13:04:25;;;;;;;16.63;10.50;;;-2.30;99.90;;;;;;5052629;28;20181;-77
2021/12/19 13:07:04;;;;;;;11.17;8.30;;;-1.80;99.90;;;;;;5037170;28;20220;-73
2021/12/19 13:09:32;;;;;;;16.67;13.13;;;-1.90;99.90;;;;;;5036025;28;20207;-75
2021/12/19 13:12:13;;;;;;;27.83;18.17;;;-2.00;99.90;;;;;;5037018;28;20173;-75
2021/12/19 13:14:47;;;;;;;20.80;13.30;;;-1.80;99.90;;;;;;5036776;28;20483;-76
2021/12/19 13:17:19;;;;;;;9.23;6.00;;;-1.80;99.90;;;;;;5037027;28;20188;-72
2021/12/19 13:19:48;;;;;;;6.73;4.30;;;-1.90;99.90;;;;;;5036884;28;20176;-73
2021/12/19 13:22:18;;;;;;;5.57;4.67;;;-2.20;99.90;;;;;;5036586;28;20200;-77
2021/12/19 13:24:45;;;;;;;9.63;4.70;;;-2.00;99.90;;;;;;5036847;28;20166;-73
2021/12/19 13:27:18;;;;;;;6.30;5.73;;;-1.80;99.90;;;;;;5036760;28;20511;-76
2021/12/19 13:30:06;;;;;;;7.50;6.40;;;-1.00;99.90;;;;;;5035826;28;20589;-74
2021/12/19 13:32:34;;;;;;;14.37;9.10;;;-1.80;99.90;;;;;;5035693;28;20188;-83
2021/12/19 13:35:02;;;;;;;13.90;10.63;;;-2.30;99.90;;;;;;5036459;28;20278;-78
2021/12/19 13:37:33;;;;;;;20.47;12.97;;;-2.50;99.90;;;;;;5036647;28;20177;-78
2021/12/19 13:40:12;;;;;;;23.40;17.57;;;-2.40;99.90;;;;;;5036689;28;20173;-73
2021/12/19 13:42:52;;;;;;;20.37;16.43;;;-2.60;99.90;;;;;;5036471;28;20262;-76
2021/12/19 13:45:44;;;;;;;40.83;24.27;;;-2.20;99.90;;;;;;5036423;28;20175;-76
2021/12/19 13:48:33;;;;;;;62.30;37.53;;;-2.10;99.90;;;;;;5037910;28;20207;-76
2021/12/19 13:51:07;;;;;;;145.87;107.80;;;-1.90;99.90;;;;;;5036103;28;20204;-72
2021/12/19 13:53:36;;;;;;;210.17;158.83;;;-2.30;99.90;;;;;;5036229;28;20259;-76